北海道METAR電文


稚内(RJCW)
04/24 12:00
METAR RJCW 240300Z 08010KT 9999 FEW003 BKN/// 11/05 Q1016 RMK 1ST003
A3001=

利尻(RJER)
04/24 12:00
RJER 240300Z 04006KT 9999 FEW010 FEWXXX 10/06 Q1016 RMK A3001=

紋別(RJEB)
04/24 12:00
METAR RJEB 240300Z 35007KT 9999 FEW005 07/07 Q1016 RMK 1ST005 A3001=

女満別(RJCM)
04/24 12:00
METAR RJCM 240300Z 16017KT 9999 FEW020 14/04 Q1017 RMK 1CU020 A3005=

中標津(RJCN)
04/24 12:00
METAR RJCN 240300Z 18008KT 9999 FEW010 BKN025 09/03 Q1021 RMK 1ST010
7CU025 A3015=

釧路(RJCK)
04/24 12:00
METAR RJCK 240300Z 16008KT 9999 FEW015 BKN025 BKN035 07/03 Q1021 RMK
1ST015 5CU025 6CU035 A3016=

十勝(RJCT)
04/24 12:00
METAR RJCT 240300Z 15007KT 9999 SCT025 BKN035 11/04 Q1022 RMK 4CU025
7CU035 A3020=

帯広(RJCB)
04/24 12:00
METAR RJCB 240300Z 14011KT 9999 FEW015 BKN020 09/04 Q1020 RMK 2ST015
7CU020 A3013=

旭川M(RJCA)
04/24 12:00
METAR RJCA 240300Z 20014G24KT 9999 BKN250 16/03 Q1015 RMK 6CI250
A3000=

旭川C(RJEC)
04/24 12:05
RJEC 240305Z 18018G29KT 9999 FEW030 BKN/// 14/03 Q1015 RMK
1CU030 A2999=

丘珠(RJCO)
04/24 12:00
METAR RJCO 240300Z 17018G28KT 9999 FEW030 BKN240 14/06 Q1018 RMK
1CU030 5CI240 A3006=

新千歳(RJCC)
04/24 12:00
METAR RJCC 240300Z 16023KT 9999 FEW020 OVC/// 15/05 Q1016 RMK 1SC020
A3003=

千歳(RJCJ)
04/24 12:17
RJCJ 240317Z 16020KT 9999 FEW015 BKN040 BKN230 14/05 Q1016 RMK
1ST015 5SC040 A3002 MAX WIND 26KT=

奥尻(RJEO)
04/24 12:00
RJEO 240300Z 09017KT 9999 SCT020 BKNXXX 12/08 Q1012 RMK A2989=

函館(RJCH)
04/24 12:00
METAR RJCH 240300Z 09014G25KT 050V120 7000 -SHRA FEW005 SCT012
BKN020 10/07 Q1015 RMK 1ST005 4ST012 5CU020 A2999=
Copyright(c) 2014 International Meteorological & Oceanographic Consultants Co,.Ltd. All Rights Reserved. Design by http://f-tpl.com